Startpagina
METAR-TAF:

METAR-TAF

Vliegvelden :

Al-Hasa, Saoedi-Arabië

breedte: 25-18N, lengte: 049-29E, hoogte: 179 m

Actueel weer

Dit bericht is 1 uur en het 12 minuten geleden gemaakt, om 20:00 UTC
Wind 3 kt uit het oostnoordoosten
Temperatuur 21°C
Vochtigheid 69%
Druk 1017 hPa
Zicht 10 km of meer
geen wolken onder 1500 m en geen cumulonimbus

METAR: OEAH 232000Z 07003KT CAVOK 21/15 Q1017 NOSIG

Tijdstip: 00:12 (21:12 UTC)

Verwachting

Dit bericht is 10 uur en het 12 minuten geleden gemaakt, om 11:00 UTC
Verwachting geldig van 23 om 12 UTC tot 24 om 18 UTC
Wind 12 kt uit het zuidoosten
Zicht: 7000 m
Wijzigt naar
van 23 om 20 UTC tot 23 om 22 UTC
Wind 3 kt uit variabele richting
Tijdelijke
van 24 om 00 UTC tot 24 om 03 UTC
Zicht: 3500 m
nevel

TAF: OEAH 231100Z 2312/2418 14012KT 7000 NSC BECMG 2320/2322 VRB03KT TEMPO 2400/2403 3500 BR

Waarnemingen en weersverwachtingen van meer dan 4000 vliegvelden (METAR en TAF).

De beschikbare stations zijn de gele en rode punten op de kaart.

Ga met uw muis naar het station om de naam te zien.

Klik dan om waarnemingen en weersverwachtingen te zien.

kaart wijzigen: klik op de groene knoppen met een zwart kruis om in te zoomen, op de groene knop met een streepje om uit te zoomen of op de groene pijlen voor aangrenzende kaarten.


METAR-TAF: